Time;durP1;ratioP1;P1;durP2;ratioP2;P2;SDS_P1;SDS_P2;PMS_P1;PMS_P2;Temp;Humidity;BMP_temperature;BMP_pressure;BME280_temperature;BME280_humidity;BME280_pressure;Samples;Min_cycle;Max_cycle;Signal;HPM_P1;HPM_P2
2023/06/09 00:01:16;;;;;;;;;;;19.60;67.70;;;;;;6127240;23;20323;-93
2023/06/09 00:03:42;;;;;;;;;;;19.70;67.80;;;;;;6126139;23;19913;-94
2023/06/09 00:06:12;;;;;;;;;;;19.60;67.70;;;;;;6126035;23;19905;-94
2023/06/09 00:08:38;;;;;;;;;;;19.60;67.70;;;;;;6125512;23;19952;-94
2023/06/09 00:11:04;;;;;;;;;;;19.60;67.70;;;;;;6125585;23;19905;-93
2023/06/09 00:13:30;;;;;;;;;;;19.60;67.90;;;;;;6125959;23;19913;-93
2023/06/09 00:15:55;;;;;;;;;;;19.60;67.90;;;;;;6125891;23;19905;-92
2023/06/09 00:18:24;;;;;;;;;;;19.60;67.90;;;;;;6126068;23;20314;-94
2023/06/09 00:20:50;;;;;;;;;;;19.60;67.90;;;;;;6126814;23;20278;-92
2023/06/09 00:23:16;;;;;;;;;;;19.60;68.00;;;;;;6126058;23;19989;-93
2023/06/09 00:25:42;;;;;;;;;;;19.60;68.10;;;;;;6127228;23;20238;-92
2023/06/09 00:28:09;;;;;;;;;;;19.60;67.90;;;;;;6126953;23;20364;-94
2023/06/09 00:30:35;;;;;;;;;;;19.60;67.90;;;;;;6125807;23;19905;-93
2023/06/09 00:33:00;;;;;;;;;;;19.60;68.00;;;;;;6125530;23;19987;-93
2023/06/09 00:35:26;;;;;;;;;;;19.60;68.20;;;;;;6126502;23;19957;-93
2023/06/09 00:37:51;;;;;;;;;;;19.60;68.10;;;;;;6125778;23;19913;-92
2023/06/09 00:40:17;;;;;;;;;;;19.50;68.00;;;;;;6124992;23;19909;-93
2023/06/09 00:42:43;;;;;;;;;;;19.50;68.10;;;;;;6124186;23;19912;-93
2023/06/09 00:45:08;;;;;;;;;;;19.50;68.20;;;;;;6125886;23;19905;-93
2023/06/09 00:47:34;;;;;;;;;;;19.50;68.30;;;;;;6125394;23;19905;-93
2023/06/09 00:50:00;;;;;;;;;;;19.50;68.30;;;;;;6125099;23;19960;-93
2023/06/09 00:52:27;;;;;;;;;;;19.50;68.20;;;;;;6126982;23;19948;-93
2023/06/09 00:54:52;;;;;;;;;;;19.50;68.20;;;;;;6125782;23;19905;-92
2023/06/09 00:57:18;;;;;;;;;;;19.50;68.40;;;;;;6125151;23;19960;-93
2023/06/09 00:59:44;;;;;;;;;;;19.50;68.30;;;;;;6125099;23;19909;-94
2023/06/09 01:02:12;;;;;;;;;;;19.50;68.30;;;;;;6125861;23;19999;-93
2023/06/09 01:04:40;;;;;;;;;;;19.50;68.40;;;;;;6126787;23;19905;-93
2023/06/09 01:07:24;;;;;;;;;;;19.50;68.40;;;;;;6101119;23;19912;-92
2023/06/09 01:09:59;;;;;;;;;;;19.50;68.30;;;;;;6100318;23;19916;-92
2023/06/09 01:12:46;;;;;;;;;;;19.50;68.10;;;;;;6101147;23;19947;-93
2023/06/09 01:15:12;;;;;;;;;;;19.50;68.40;;;;;;6101238;23;19905;-92
2023/06/09 01:17:39;;;;;;;;;;;19.40;68.30;;;;;;6101112;23;19960;-92
2023/06/09 01:20:06;;;;;;;;;;;19.40;68.40;;;;;;6100240;23;20224;-93
2023/06/09 01:22:44;;;;;;;;;;;19.40;68.40;;;;;;6101018;23;19905;-93
2023/06/09 01:25:17;;;;;;;;;;;19.40;68.50;;;;;;6101064;23;19916;-92
2023/06/09 01:27:44;;;;;;;;;;;19.40;68.30;;;;;;6100924;23;19912;-92
2023/06/09 01:30:11;;;;;;;;;;;19.40;68.30;;;;;;6125960;23;20031;-93
2023/06/09 01:32:38;;;;;;;;;;;19.40;68.60;;;;;;6100238;23;19916;-93
2023/06/09 01:35:04;;;;;;;;;;;19.40;68.60;;;;;;6101193;23;20231;-93
2023/06/09 01:37:30;;;;;;;;;;;19.40;68.70;;;;;;6100871;23;19909;-92
2023/06/09 01:39:57;;;;;;;;;;;19.40;68.60;;;;;;6100135;23;19975;-94
2023/06/09 01:42:24;;;;;;;;;;;19.40;68.60;;;;;;6100336;23;19911;-93
2023/06/09 01:44:49;;;;;;;;;;;19.40;68.60;;;;;;6100683;23;19954;-93
2023/06/09 01:47:18;;;;;;;;;;;19.40;68.60;;;;;;6100524;23;19905;-93
2023/06/09 01:49:54;;;;;;;;;;;19.40;68.30;;;;;;6099733;23;19954;-93
2023/06/09 01:52:29;;;;;;;;;;;19.40;68.00;;;;;;6100554;23;19913;-92
2023/06/09 01:54:57;;;;;;;;;;;19.40;68.30;;;;;;6100198;23;20382;-93
2023/06/09 01:57:30;;;;;;;;;;;19.40;68.10;;;;;;6127557;23;19905;-92
2023/06/09 01:59:59;;;;;;;;;;;19.30;68.50;;;;;;6100939;23;19936;-92
2023/06/09 02:02:25;;;;;;;;;;;19.40;68.50;;;;;;6106984;23;19912;-92
2023/06/09 02:04:51;;;;;;;;;;;19.30;68.40;;;;;;6125990;23;19934;-92
2023/06/09 02:07:17;;;;;;;;;;;19.30;68.10;;;;;;6125282;23;19959;-92
2023/06/09 02:09:44;;;;;;;;;;;19.30;68.30;;;;;;6124855;23;19908;-93
2023/06/09 02:12:10;;;;;;;;;;;19.30;68.60;;;;;;6124646;23;20324;-92
2023/06/09 02:14:36;;;;;;;;;;;19.30;68.30;;;;;;6124778;23;19964;-93
2023/06/09 02:17:02;;;;;;;;;;;19.30;68.60;;;;;;6125544;23;19905;-92
2023/06/09 02:19:28;;;;;;;;;;;19.30;68.20;;;;;;6121280;23;19912;-91
2023/06/09 02:21:54;;;;;;;;;;;19.30;68.30;;;;;;6125685;23;20330;-93
2023/06/09 02:24:20;;;;;;;;;;;19.30;68.50;;;;;;6124384;23;19916;-93
2023/06/09 02:26:48;;;;;;;;;;;19.30;68.50;;;;;;6124342;23;20242;-93
2023/06/09 02:29:15;;;;;;;;;;;19.20;68.50;;;;;;6124292;23;20366;-94
2023/06/09 02:31:40;;;;;;;;;;;19.20;68.30;;;;;;6125063;23;19956;-92
2023/06/09 02:34:06;;;;;;;;;;;19.20;68.70;;;;;;6124530;23;19908;-91
2023/06/09 02:36:31;;;;;;;;;;;19.30;68.30;;;;;;6124821;23;20682;-94
2023/06/09 02:38:57;;;;;;;;;;;19.20;68.50;;;;;;6124305;23;19924;-92
2023/06/09 02:41:23;;;;;;;;;;;19.20;68.50;;;;;;6124658;23;20242;-93
2023/06/09 02:43:48;;;;;;;;;;;19.20;68.20;;;;;;6124005;23;19920;-92
2023/06/09 02:46:17;;;;;;;;;;;19.20;68.40;;;;;;6123673;23;19924;-93
2023/06/09 02:48:42;;;;;;;;;;;19.20;68.70;;;;;;6124016;23;19911;-92
2023/06/09 02:51:08;;;;;;;;;;;19.20;68.30;;;;;;6124103;23;19988;-92
2023/06/09 02:53:33;;;;;;;;;;;19.20;68.50;;;;;;6124496;23;20337;-92
2023/06/09 02:55:59;;;;;;;;;;;19.20;68.30;;;;;;6124352;23;19905;-89
2023/06/09 02:58:24;;;;;;;;;;;19.20;68.30;;;;;;6124278;23;19924;-94
2023/06/09 03:00:50;;;;;;;;;;;19.20;68.30;;;;;;6125422;23;20394;-92
2023/06/09 03:03:17;;;;;;;;;;;19.20;68.50;;;;;;6126098;23;19936;-92
2023/06/09 03:05:43;;;;;;;;;;;19.20;68.20;;;;;;6126345;23;20323;-93
2023/06/09 03:08:09;;;;;;;;;;;19.20;68.00;;;;;;6128317;23;20319;-93
2023/06/09 03:10:35;;;;;;;;;;;19.20;68.30;;;;;;6126010;23;19940;-92
2023/06/09 03:13:00;;;;;;;;;;;19.20;68.30;;;;;;6126116;23;19905;-91
2023/06/09 03:15:26;;;;;;;;;;;19.10;69.20;;;;;;6127265;23;20311;-92
2023/06/09 03:17:52;;;;;;;;;;;19.20;68.50;;;;;;6126833;23;19993;-93
2023/06/09 03:20:19;;;;;;;;;;;19.20;68.60;;;;;;6127270;23;19909;-91
2023/06/09 03:22:45;;;;;;;;;;;19.10;68.20;;;;;;6127854;23;20331;-92
2023/06/09 03:25:12;;;;;;;;;;;19.10;68.40;;;;;;6127794;23;19921;-92
2023/06/09 03:27:38;;;;;;;;;;;19.10;68.40;;;;;;6129612;23;19905;-92
2023/06/09 03:30:05;;;;;;;;;;;19.10;68.40;;;;;;6131527;23;19905;-93
2023/06/09 03:32:31;;;;;;;;;;;19.10;68.00;;;;;;6127607;23;19905;-93
2023/06/09 03:34:57;;;;;;;;;;;19.10;68.40;;;;;;6128119;23;19975;-92
2023/06/09 03:37:24;;;;;;;;;;;19.10;68.20;;;;;;6128009;23;23184;-92
2023/06/09 03:39:50;;;;;;;;;;;19.10;68.20;;;;;;6130665;23;19996;-95
2023/06/09 03:42:15;;;;;;;;;;;19.10;68.30;;;;;;6126895;23;19936;-94
2023/06/09 03:44:41;;;;;;;;;;;19.10;68.30;;;;;;6126882;23;19905;-90
2023/06/09 03:47:09;;;;;;;;;;;19.10;68.80;;;;;;6126689;23;19916;-92
2023/06/09 03:49:35;;;;;;;;;;;19.10;68.60;;;;;;6125368;23;19912;-93
2023/06/09 03:52:01;;;;;;;;;;;19.10;68.60;;;;;;6125540;23;19909;-93
2023/06/09 03:54:26;;;;;;;;;;;19.10;68.70;;;;;;6126021;23;19905;-92
2023/06/09 03:56:52;;;;;;;;;;;19.00;68.70;;;;;;6126231;23;19905;-92
2023/06/09 03:59:18;;;;;;;;;;;19.00;68.60;;;;;;6125774;23;19919;-93
2023/06/09 04:01:43;;;;;;;;;;;19.10;68.60;;;;;;6125869;23;19916;-92
2023/06/09 04:04:09;;;;;;;;;;;19.00;68.80;;;;;;6101516;23;19949;-93
2023/06/09 04:06:36;;;;;;;;;;;19.00;68.60;;;;;;6101603;23;19905;-93
2023/06/09 04:09:03;;;;;;;;;;;19.00;68.50;;;;;;6101516;23;20238;-91
2023/06/09 04:11:30;;;;;;;;;;;19.00;68.70;;;;;;6101107;23;20208;-91
2023/06/09 04:13:55;;;;;;;;;;;19.00;68.80;;;;;;6101469;23;19909;-91
2023/06/09 04:16:21;;;;;;;;;;;19.00;68.70;;;;;;6101513;23;19916;-93
2023/06/09 04:18:47;;;;;;;;;;;19.00;69.10;;;;;;6100888;23;20031;-93
2023/06/09 04:21:13;;;;;;;;;;;19.00;68.90;;;;;;6101513;23;19904;-93
2023/06/09 04:23:40;;;;;;;;;;;19.00;68.70;;;;;;6100570;23;19912;-93
2023/06/09 04:26:08;;;;;;;;;;;19.00;69.00;;;;;;6101611;23;19943;-93
2023/06/09 04:28:34;;;;;;;;;;;19.00;69.10;;;;;;6100905;23;19947;-92
2023/06/09 04:31:00;;;;;;;;;;;19.00;69.90;;;;;;6102175;23;19905;-93
2023/06/09 04:33:26;;;;;;;;;;;19.00;69.10;;;;;;6100586;23;20212;-93
2023/06/09 04:35:54;;;;;;;;;;;19.00;69.30;;;;;;6100971;23;19916;-93
2023/06/09 04:38:20;;;;;;;;;;;19.00;69.30;;;;;;6101372;23;20342;-93
2023/06/09 04:40:46;;;;;;;;;;;19.00;69.40;;;;;;6125815;23;19905;-90
2023/06/09 04:43:12;;;;;;;;;;;19.00;70.00;;;;;;6099866;23;19905;-91
2023/06/09 04:45:38;;;;;;;;;;;19.00;69.70;;;;;;6099773;23;19909;-90
2023/06/09 04:48:05;;;;;;;;;;;18.90;70.00;;;;;;6100834;23;19975;-92
2023/06/09 04:50:33;;;;;;;;;;;18.90;70.10;;;;;;6100412;23;19909;-93
2023/06/09 04:52:58;;;;;;;;;;;18.90;70.30;;;;;;6126432;23;19905;-93
2023/06/09 04:55:26;;;;;;;;;;;18.90;70.30;;;;;;6101134;23;19969;-93
2023/06/09 04:57:56;;;;;;;;;;;18.90;70.30;;;;;;6100432;23;19992;-93
2023/06/09 05:00:30;;;;;;;;;;;18.90;70.20;;;;;;6100951;23;20532;-93
2023/06/09 05:03:05;;;;;;;;;;;19.00;70.30;;;;;;6114047;23;19913;-93
2023/06/09 05:05:31;;;;;;;;;;;19.00;70.50;;;;;;6125635;23;19905;-93
2023/06/09 05:07:57;;;;;;;;;;;19.00;70.50;;;;;;6126435;23;19905;-92
2023/06/09 05:10:22;;;;;;;;;;;19.00;70.60;;;;;;6124836;23;19909;-93
2023/06/09 05:12:48;;;;;;;;;;;19.00;70.60;;;;;;6125412;23;19909;-94
2023/06/09 05:15:14;;;;;;;;;;;19.00;70.70;;;;;;6125357;23;20299;-93
2023/06/09 05:17:41;;;;;;;;;;;19.00;70.80;;;;;;6125374;23;19909;-94
2023/06/09 05:20:08;;;;;;;;;;;19.10;70.90;;;;;;6124766;23;19932;-93
2023/06/09 05:22:35;;;;;;;;;;;19.10;71.10;;;;;;6125478;23;19979;-94
2023/06/09 05:25:05;;;;;;;;;;;19.10;70.90;;;;;;6125129;23;20254;-93
2023/06/09 05:27:31;;;;;;;;;;;19.10;70.90;;;;;;6125184;23;19913;-93
2023/06/09 05:29:56;;;;;;;;;;;19.10;70.90;;;;;;6124606;23;19905;-93
2023/06/09 05:32:22;;;;;;;;;;;19.10;71.10;;;;;;6124687;23;19980;-95
2023/06/09 05:34:48;;;;;;;;;;;19.10;71.10;;;;;;6124874;23;19919;-94
2023/06/09 05:37:16;;;;;;;;;;;19.10;71.20;;;;;;6125855;23;20230;-95
2023/06/09 05:39:42;;;;;;;;;;;19.10;71.00;;;;;;6125090;23;19913;-94
2023/06/09 05:42:08;;;;;;;;;;;19.20;71.00;;;;;;6125426;23;19905;-95
2023/06/09 05:44:33;;;;;;;;;;;19.20;71.10;;;;;;6125258;23;19911;-95
2023/06/09 05:47:01;;;;;;;;;;;19.20;71.20;;;;;;6126672;23;19944;-95
2023/06/09 05:49:27;;;;;;;;;;;19.20;71.30;;;;;;6124818;23;19940;-94
2023/06/09 05:51:52;;;;;;;;;;;19.20;71.20;;;;;;6125473;23;19905;-95
2023/06/09 05:54:18;;;;;;;;;;;19.20;71.20;;;;;;6125348;23;19909;-95
2023/06/09 05:56:45;;;;;;;;;;;19.20;71.30;;;;;;6124987;23;19963;-94
2023/06/09 05:59:12;;;;;;;;;;;19.20;71.40;;;;;;6124200;23;19932;-95
2023/06/09 06:01:37;;;;;;;;;;;19.20;71.30;;;;;;6125753;23;20318;-95
2023/06/09 06:04:03;;;;;;;;;;;19.20;71.50;;;;;;6100908;23;19916;-95
2023/06/09 06:06:37;;;;;;;;;;;19.30;71.60;;;;;;6100379;23;19905;-92
2023/06/09 06:09:11;;;;;;;;;;;19.60;72.00;;;;;;6125522;23;20349;-94
2023/06/09 06:11:38;;;;;;;;;;;19.40;71.80;;;;;;6100677;23;20386;-94
2023/06/09 06:14:04;;;;;;;;;;;19.40;71.80;;;;;;6100828;23;20354;-93
2023/06/09 06:16:56;;;;;;;;;;;19.40;71.80;;;;;;6099950;23;20315;-96
2023/06/09 06:19:21;;;;;;;;;;;19.40;71.60;;;;;;5956010;24;20666;-94
2023/06/09 06:21:48;;;;;;;;;;;19.40;71.60;;;;;;5956850;24;19985;-93
2023/06/09 06:24:14;;;;;;;;;;;19.40;71.50;;;;;;5957436;24;19906;-95
2023/06/09 06:26:40;;;;;;;;;;;19.50;71.60;;;;;;5957923;24;19914;-95
2023/06/09 06:29:06;;;;;;;;;;;19.50;71.60;;;;;;5956384;24;19906;-92
2023/06/09 06:31:31;;;;;;;;;;;19.60;71.60;;;;;;5956944;24;19907;-95
2023/06/09 06:33:58;;;;;;;;;;;19.60;71.50;;;;;;5957691;24;19911;-94
2023/06/09 06:36:24;;;;;;;;;;;19.60;71.50;;;;;;5956874;24;19918;-96
2023/06/09 06:38:54;;;;;;;;;;;19.60;71.40;;;;;;5978405;24;19915;-96
2023/06/09 06:41:20;;;;;;;;;;;19.70;71.50;;;;;;5957679;24;19993;-96
2023/06/09 06:43:52;;;;;;;;;;;19.70;71.30;;;;;;5957052;24;19914;-96
2023/06/09 06:46:18;;;;;;;;;;;19.70;71.30;;;;;;5980681;24;19914;-94
2023/06/09 06:48:44;;;;;;;;;;;19.70;71.10;;;;;;5957610;24;19910;-96
2023/06/09 06:51:10;;;;;;;;;;;19.80;71.10;;;;;;5957715;24;19910;-96
2023/06/09 06:53:37;;;;;;;;;;;19.80;71.00;;;;;;5956660;24;19910;-95
2023/06/09 06:56:03;;;;;;;;;;;19.80;70.90;;;;;;6022596;23;19931;-95
2023/06/09 06:58:29;;;;;;;;;;;19.90;70.80;;;;;;6099467;23;20343;-94
2023/06/09 07:00:55;;;;;;;;;;;19.90;70.50;;;;;;6100325;23;19905;-95
2023/06/09 07:03:25;;;;;;;;;;;19.90;70.50;;;;;;6118260;23;19932;-96
2023/06/09 07:05:54;;;;;;;;;;;20.00;70.50;;;;;;6125765;23;19991;-96
2023/06/09 07:08:20;;;;;;;;;;;20.00;70.20;;;;;;6125820;23;19915;-96
2023/06/09 07:10:46;;;;;;;;;;;20.00;70.00;;;;;;6125454;23;19905;-95
2023/06/09 07:13:12;;;;;;;;;;;20.10;69.90;;;;;;6124850;23;19921;-96
2023/06/09 07:15:38;;;;;;;;;;;20.10;69.70;;;;;;6124675;23;19905;-94
2023/06/09 07:18:06;;;;;;;;;;;20.10;69.50;;;;;;6125888;23;19905;-94
2023/06/09 07:20:31;;;;;;;;;;;20.20;69.50;;;;;;6128050;23;20374;-95
2023/06/09 07:22:58;;;;;;;;;;;20.20;69.40;;;;;;6126435;23;19912;-96
2023/06/09 07:25:23;;;;;;;;;;;20.30;69.20;;;;;;6126023;23;19953;-94
2023/06/09 07:27:49;;;;;;;;;;;20.30;69.00;;;;;;6130608;23;19916;-95
2023/06/09 07:30:15;;;;;;;;;;;20.30;69.10;;;;;;6128552;23;19909;-96
2023/06/09 07:32:41;;;;;;;;;;;20.40;69.00;;;;;;6103461;23;19913;-95
2023/06/09 07:35:12;;;;;;;;;;;20.40;68.80;;;;;;6129094;23;19932;-96
2023/06/09 07:37:42;;;;;;;;;;;20.40;69.40;;;;;;6128901;23;20403;-92
2023/06/09 07:40:09;;;;;;;;;;;20.50;68.60;;;;;;6125086;23;19992;-92
2023/06/09 07:42:35;;;;;;;;;;;20.60;68.50;;;;;;6125423;23;19963;-93
2023/06/09 07:45:01;;;;;;;;;;;20.60;68.20;;;;;;6125469;23;19939;-93
2023/06/09 07:47:26;;;;;;;;;;;20.60;68.20;;;;;;6126733;23;19905;-94
2023/06/09 07:49:52;;;;;;;;;;;20.60;68.00;;;;;;6126303;23;20397;-93
2023/06/09 07:52:17;;;;;;;;;;;20.60;67.80;;;;;;6125656;23;19915;-92
2023/06/09 07:54:43;;;;;;;;;;;20.70;67.70;;;;;;6127287;23;19912;-93
2023/06/09 07:57:08;;;;;;;;;;;20.70;67.70;;;;;;6126505;23;19913;-92
2023/06/09 07:59:34;;;;;;;;;;;20.70;67.60;;;;;;6125546;23;19909;-93
2023/06/09 08:02:01;;;;;;;;;;;20.80;67.50;;;;;;6125846;23;19916;-93
2023/06/09 08:04:28;;;;;;;;;;;20.80;67.40;;;;;;6127093;23;19909;-94
2023/06/09 08:06:54;;;;;;;;;;;20.90;67.40;;;;;;6126475;23;19909;-94
2023/06/09 08:09:20;;;;;;;;;;;20.90;67.30;;;;;;6125438;23;19936;-96
2023/06/09 08:11:46;;;;;;;;;;;20.90;67.20;;;;;;6126050;23;20021;-94
2023/06/09 08:14:11;;;;;;;;;;;20.90;67.00;;;;;;6126288;23;19920;-93
2023/06/09 08:16:37;;;;;;;;;;;21.00;67.00;;;;;;6126215;23;20275;-94
2023/06/09 08:19:03;;;;;;;;;;;21.00;67.00;;;;;;6125407;23;19913;-94
2023/06/09 08:21:28;;;;;;;;;;;21.10;66.90;;;;;;6126460;23;20393;-93
2023/06/09 08:23:54;;;;;;;;;;;21.10;66.90;;;;;;6126255;23;19924;-95
2023/06/09 08:26:20;;;;;;;;;;;21.10;66.80;;;;;;6126509;23;20338;-94
2023/06/09 08:28:45;;;;;;;;;;;21.20;66.70;;;;;;6125682;23;19905;-96
2023/06/09 08:31:11;;;;;;;;;;;21.20;66.60;;;;;;6124879;23;19920;-93
2023/06/09 08:33:37;;;;;;;;;;;21.20;67.30;;;;;;6122730;23;20447;-93
2023/06/09 08:36:03;;;;;;;;;;;21.20;66.50;;;;;;6125612;23;19912;-93
2023/06/09 08:38:33;;;;;;;;;;;21.20;66.40;;;;;;6125803;23;20315;-91
2023/06/09 08:41:05;;;;;;;;;;;21.30;66.40;;;;;;6126225;23;19905;-93
2023/06/09 08:43:33;;;;;;;;;;;21.30;66.30;;;;;;6126421;23;20069;-94
2023/06/09 08:46:01;;;;;;;;;;;21.30;66.20;;;;;;6126104;23;19940;-94
2023/06/09 08:48:27;;;;;;;;;;;21.30;66.10;;;;;;6126285;23;19905;-94
2023/06/09 08:51:13;;;;;;;;;;;21.30;66.10;;;;;;6126327;23;19908;-94
2023/06/09 08:53:39;;;;;;;;;;;21.40;66.00;;;;;;6123074;23;19940;-95
2023/06/09 08:56:08;;;;;;;;;;;21.40;66.00;;;;;;6126846;23;19905;-93
2023/06/09 08:58:36;;;;;;;;;;;21.40;65.80;;;;;;6101166;23;19960;-95
2023/06/09 09:01:03;;;;;;;;;;;21.40;65.80;;;;;;6125737;23;19905;-95
2023/06/09 09:03:29;;;;;;;;;;;21.40;65.80;;;;;;6125916;23;20300;-95
2023/06/09 09:06:01;;;;;;;;;;;21.40;65.70;;;;;;6101548;23;20238;-95
2023/06/09 09:08:26;;;;;;;;;;;21.40;65.70;;;;;;6127596;23;20208;-95
2023/06/09 09:10:55;;;;;;;;;;;21.50;65.60;;;;;;6126033;23;19905;-96
2023/06/09 09:13:30;;;;;;;;;;;21.50;65.50;;;;;;6126306;23;19909;-93
2023/06/09 09:15:58;;;;;;;;;;;21.40;65.50;;;;;;6127344;23;20300;-94
2023/06/09 09:18:47;;;;;;;;;;;21.50;65.40;;;;;;6125957;23;19992;-94
2023/06/09 09:21:20;;;;;;;;;;;21.50;65.40;;;;;;6124497;23;19916;-93
2023/06/09 09:23:54;;;;;;;;;;;21.50;65.40;;;;;;6125757;23;19905;-94
2023/06/09 09:26:26;;;;;;;;;;;21.60;65.40;;;;;;6125297;23;19927;-94
2023/06/09 09:28:55;;;;;;;;;;;21.60;65.30;;;;;;6124941;23;20174;-94
2023/06/09 09:31:21;;;;;;;;;;;21.60;65.20;;;;;;6125268;23;19913;-93
2023/06/09 09:33:48;;;;;;;;;;;21.60;65.20;;;;;;6124330;23;20315;-94
2023/06/09 09:36:14;;;;;;;;;;;21.60;65.20;;;;;;6125069;23;19905;-95
2023/06/09 09:38:42;;;;;;;;;;;21.60;66.00;;;;;;6124823;23;20021;-94
2023/06/09 09:41:12;;;;;;;;;;;21.60;65.10;;;;;;6124446;23;19905;-93
2023/06/09 09:43:40;;;;;;;;;;;21.60;65.00;;;;;;6125560;23;20344;-94
2023/06/09 09:46:07;;;;;;;;;;;21.70;65.10;;;;;;6124869;23;19911;-95
2023/06/09 09:48:33;;;;;;;;;;;21.70;65.00;;;;;;6124453;23;20316;-92
2023/06/09 09:51:00;;;;;;;;;;;21.70;65.00;;;;;;6124893;23;20381;-93
2023/06/09 09:53:26;;;;;;;;;;;21.70;65.00;;;;;;6125402;23;19959;-93
2023/06/09 09:55:53;;;;;;;;;;;21.70;65.00;;;;;;6124987;23;19955;-93
2023/06/09 09:58:20;;;;;;;;;;;21.70;64.90;;;;;;6125105;23;19969;-93
2023/06/09 10:00:46;;;;;;;;;;;21.70;64.90;;;;;;6124716;23;19911;-91
2023/06/09 10:03:19;;;;;;;;;;;21.70;65.00;;;;;;6123881;23;19917;-93
2023/06/09 10:05:46;;;;;;;;;;;21.70;65.00;;;;;;6125471;23;19988;-93
2023/06/09 10:08:15;;;;;;;;;;;21.70;65.00;;;;;;6125561;23;19909;-94
2023/06/09 10:10:41;;;;;;;;;;;21.70;64.90;;;;;;6124806;23;19916;-92
2023/06/09 10:13:07;;;;;;;;;;;21.70;65.10;;;;;;6125094;23;19905;-93
2023/06/09 10:15:33;;;;;;;;;;;21.70;65.20;;;;;;6124095;23;20234;-92
2023/06/09 10:17:59;;;;;;;;;;;21.70;65.00;;;;;;6124413;23;19905;-94
2023/06/09 10:20:25;;;;;;;;;;;21.60;65.30;;;;;;6124262;23;19905;-94
2023/06/09 10:22:51;;;;;;;;;;;21.60;65.10;;;;;;6125349;23;19915;-93
2023/06/09 10:25:17;;;;;;;;;;;21.60;65.20;;;;;;6124984;23;19905;-93
2023/06/09 10:27:43;;;;;;;;;;;21.60;65.10;;;;;;6124940;23;19929;-94
2023/06/09 10:30:09;;;;;;;;;;;21.60;65.30;;;;;;6100924;23;19961;-93
2023/06/09 10:32:37;;;;;;;;;;;21.50;65.30;;;;;;6124914;23;20259;-93
2023/06/09 10:35:04;;;;;;;;;;;21.50;65.40;;;;;;6124710;23;20298;-93
2023/06/09 10:37:30;;;;;;;;;;;21.50;65.60;;;;;;6124982;23;19933;-93
2023/06/09 10:40:16;;;;;;;;;;;21.50;65.60;;;;;;6124371;23;19909;-95
2023/06/09 10:42:58;;;;;;;;;;;21.50;65.80;;;;;;6123362;23;19909;-93
2023/06/09 10:45:29;;;;;;;;;;;21.50;65.90;;;;;;6124619;23;19909;-93
2023/06/09 10:47:54;;;;;;;;;;;21.40;66.00;;;;;;6124361;23;19912;-94
2023/06/09 10:50:27;;;;;;;;;;;21.40;66.10;;;;;;6125144;23;20267;-94
2023/06/09 10:52:54;;;;;;;;;;;21.40;66.30;;;;;;6125666;23;19905;-93
2023/06/09 10:55:24;;;;;;;;;;;21.40;66.30;;;;;;6125406;23;19905;-94
2023/06/09 10:57:50;;;;;;;;;;;21.40;66.50;;;;;;6125039;23;19912;-94
2023/06/09 11:00:19;;;;;;;;;;;21.30;66.40;;;;;;6124192;23;19962;-94
2023/06/09 11:02:48;;;;;;;;;;;21.30;66.50;;;;;;6124797;23;19917;-95
2023/06/09 11:05:15;;;;;;;;;;;21.30;66.60;;;;;;6124520;23;19905;-88
2023/06/09 11:07:43;;;;;;;;;;;21.30;67.00;;;;;;6123823;23;19905;-90
2023/06/09 11:10:11;;;;;;;;;;;21.40;67.00;;;;;;6123625;23;19905;-91
2023/06/09 11:12:36;;;;;;;;;;;21.50;67.00;;;;;;6123626;23;19909;-89
2023/06/09 11:15:03;;;;;;;;;;;21.60;67.20;;;;;;6125285;23;19905;-90
2023/06/09 11:17:39;;;;;;;;;;;21.60;67.30;;;;;;6125487;23;19905;-90
2023/06/09 11:20:26;;;;;;;;;;;21.60;67.10;;;;;;6122926;23;19916;-89
2023/06/09 11:22:51;;;;;;;;;;;21.60;67.00;;;;;;6126493;23;19920;-89
2023/06/09 11:25:16;;;;;;;;;;;21.60;66.70;;;;;;6124689;23;19905;-90
2023/06/09 11:27:43;;;;;;;;;;;21.60;67.00;;;;;;6123211;23;19905;-88
2023/06/09 11:30:20;;;;;;;;;;;21.60;66.70;;;;;;6124093;23;19905;-89
2023/06/09 11:32:46;;;;;;;;;;;21.60;67.50;;;;;;6127591;23;19909;-90
2023/06/09 11:35:39;;;;;;;;;;;21.60;66.60;;;;;;6126417;23;20036;-87
2023/06/09 11:38:06;;;;;;;;;;;21.60;66.20;;;;;;6124510;23;19908;-87
2023/06/09 11:40:32;;;;;;;;;;;21.60;68.30;;;;;;6125871;23;20248;-90
2023/06/09 11:42:58;;;;;;;;;;;21.70;68.40;;;;;;6125625;23;19909;-94
2023/06/09 11:45:29;;;;;;;;;;;21.70;66.80;;;;;;6125309;23;19912;-89
2023/06/09 11:47:56;;;;;;;;;;;21.60;66.20;;;;;;6125366;23;19906;-88
2023/06/09 11:50:23;;;;;;;;;;;21.60;66.70;;;;;;6124487;23;19912;-87
2023/06/09 11:53:00;;;;;;;;;;;21.60;68.70;;;;;;6125380;23;19955;-89
2023/06/09 11:55:26;;;;;;;;;;;21.60;67.50;;;;;;6124594;23;19931;-89
2023/06/09 11:57:52;;;;;;;;;;;21.60;68.20;;;;;;6125237;23;19945;-89
2023/06/09 12:00:18;;;;;;;;;;;21.60;67.80;;;;;;6125292;23;19909;-90
2023/06/09 12:02:47;;;;;;;;;;;21.60;67.90;;;;;;6126012;23;20247;-89
2023/06/09 12:05:13;;;;;;;;;;;21.60;68.40;;;;;;6125485;23;20354;-89
2023/06/09 12:07:41;;;;;;;;;;;21.50;67.80;;;;;;6125285;23;19913;-90
2023/06/09 12:10:06;;;;;;;;;;;21.50;67.90;;;;;;6124675;23;19932;-90
2023/06/09 12:12:41;;;;;;;;;;;21.50;67.90;;;;;;6125588;23;19905;-88
2023/06/09 12:15:07;;;;;;;;;;;21.40;67.60;;;;;;6124670;23;19909;-88
2023/06/09 12:17:32;;;;;;;;;;;21.50;68.80;;;;;;6126345;23;19928;-88
2023/06/09 12:20:18;;;;;;;;;;;21.50;69.00;;;;;;6124218;23;19909;-89
2023/06/09 12:22:44;;;;;;;;;;;21.50;69.30;;;;;;6124657;23;19912;-87
2023/06/09 12:25:19;;;;;;;;;;;21.50;69.00;;;;;;6124175;23;19905;-88
2023/06/09 12:27:44;;;;;;;;;;;21.50;68.30;;;;;;6124226;23;19936;-90
2023/06/09 12:30:10;;;;;;;;;;;21.50;68.60;;;;;;6124261;23;19912;-88
2023/06/09 12:32:36;;;;;;;;;;;21.50;68.80;;;;;;6123965;23;19909;-88
2023/06/09 12:35:03;;;;;;;;;;;21.50;69.60;;;;;;6125769;23;19916;-87
2023/06/09 12:37:36;;;;;;;;;;;21.50;69.30;;;;;;6124442;23;19976;-88
2023/06/09 12:40:04;;;;;;;;;;;21.50;69.20;;;;;;6130453;23;19920;-96
2023/06/09 12:42:32;;;;;;;;;;;21.50;69.70;;;;;;6128638;23;19905;-96
2023/06/09 12:44:58;;;;;;;;;;;21.60;71.00;;;;;;6126053;23;19905;-96
2023/06/09 12:47:34;;;;;;;;;;;21.60;71.10;;;;;;6128154;23;19952;-94
2023/06/09 12:50:01;;;;;;;;;;;21.60;71.00;;;;;;6129135;23;19909;-95
2023/06/09 12:52:33;;;;;;;;;;;21.60;70.50;;;;;;6127700;23;19956;-96
2023/06/09 12:54:59;;;;;;;;;;;21.60;70.10;;;;;;6132829;23;19905;-96
2023/06/09 12:57:25;;;;;;;;;;;21.50;69.60;;;;;;6134640;23;19958;-96
2023/06/09 12:59:51;;;;;;;;;;;21.50;69.40;;;;;;6128514;23;19909;-95
2023/06/09 13:02:37;;;;;;;;;;;21.50;69.40;;;;;;6134705;23;20338;-96
2023/06/09 13:05:03;;;;;;;;;;;21.50;68.80;;;;;;6131620;23;19984;-96
2023/06/09 13:07:29;;;;;;;;;;;21.50;69.30;;;;;;6133273;23;19905;-96
2023/06/09 13:09:55;;;;;;;;;;;21.50;68.70;;;;;;6129743;23;19905;-96
2023/06/09 13:12:21;;;;;;;;;;;21.50;68.40;;;;;;6128432;23;19932;-94
2023/06/09 13:14:47;;;;;;;;;;;21.50;68.20;;;;;;6129731;23;19958;-96
2023/06/09 13:17:13;;;;;;;;;;;21.50;68.60;;;;;;6132818;23;19904;-96
2023/06/09 13:19:38;;;;;;;;;;;21.50;67.90;;;;;;6130462;23;19924;-96
2023/06/09 13:22:16;;;;;;;;;;;21.50;67.90;;;;;;6129539;23;19905;-95
2023/06/09 13:24:45;;;;;;;;;;;21.50;67.60;;;;;;6131926;23;20330;-96
2023/06/09 13:27:15;;;;;;;;;;;21.50;67.40;;;;;;6135802;23;19905;-96
2023/06/09 13:29:43;;;;;;;;;;;21.50;67.60;;;;;;6137469;23;19932;-96
2023/06/09 13:32:21;;;;;;;;;;;21.50;67.70;;;;;;6130315;23;19905;-96
2023/06/09 13:34:47;;;;;;;;;;;21.40;67.30;;;;;;6135929;23;19912;-96
2023/06/09 13:37:13;;;;;;;;;;;21.50;67.80;;;;;;6110990;23;19912;-96
2023/06/09 13:39:39;;;;;;;;;;;21.40;67.30;;;;;;6136672;23;19916;-96
2023/06/09 13:42:06;;;;;;;;;;;21.50;67.40;;;;;;6140708;23;19928;-96
2023/06/09 13:44:32;;;;;;;;;;;21.40;67.10;;;;;;6136885;23;19995;-96
2023/06/09 13:46:58;;;;;;;;;;;21.40;67.20;;;;;;6137790;23;19912;-96
2023/06/09 13:49:25;;;;;;;;;;;21.50;67.40;;;;;;6137770;23;19905;-96
2023/06/09 13:54:37;;;;;;;;;;;21.50;67.50;;;;;;6137805;23;19909;-96
2023/06/09 13:57:15;;;;;;;;;;;21.50;67.00;;;;;;6138334;23;20250;-95
2023/06/09 13:59:41;;;;;;;;;;;21.40;66.70;;;;;;6133061;23;19921;-96
2023/06/09 14:02:06;;;;;;;;;;;21.50;66.70;;;;;;6129397;23;19912;-96
2023/06/09 14:04:35;;;;;;;;;;;21.40;66.60;;;;;;6131400;23;19905;-96
2023/06/09 14:07:00;;;;;;;;;;;21.40;66.60;;;;;;6128798;23;19905;-96
2023/06/09 14:09:26;;;;;;;;;;;21.50;66.40;;;;;;6127055;23;19912;-96
2023/06/09 14:11:54;;;;;;;;;;;21.50;66.80;;;;;;6128515;23;20243;-94
2023/06/09 14:14:20;;;;;;;;;;;21.50;66.60;;;;;;6129051;23;19985;-95
2023/06/09 14:16:46;;;;;;;;;;;21.50;65.90;;;;;;6132886;23;19905;-93
2023/06/09 14:19:14;;;;;;;;;;;21.40;65.70;;;;;;6133783;23;19913;-96
2023/06/09 14:21:40;;;;;;;;;;;21.40;65.40;;;;;;6131506;23;19908;-95